createdAt,value
2019-06-23T00:01:52.540Z,5.13
2019-06-23T00:04:19.416Z,4.20
2019-06-23T00:06:46.657Z,3.63
2019-06-23T00:09:13.640Z,5.93
2019-06-23T00:11:40.540Z,4.40
2019-06-23T00:14:07.557Z,4.47
2019-06-23T00:16:34.470Z,5.53
2019-06-23T00:19:01.515Z,7.13
2019-06-23T00:21:28.294Z,8.97
2019-06-23T00:23:55.578Z,7.70
2019-06-23T00:26:22.592Z,5.83
2019-06-23T00:28:49.673Z,4.60
2019-06-23T00:31:39.866Z,4.87
2019-06-23T00:34:07.035Z,4.37
2019-06-23T00:36:34.112Z,3.23
2019-06-23T00:39:01.020Z,4.50
2019-06-23T00:41:28.264Z,4.23
2019-06-23T00:43:55.081Z,4.10
2019-06-23T00:46:22.103Z,25.13
2019-06-23T00:48:49.225Z,13.07
2019-06-23T00:51:16.031Z,6.23
2019-06-23T00:53:42.944Z,3.60
2019-06-23T00:56:10.060Z,3.43
2019-06-23T00:58:36.976Z,3.43
2019-06-23T01:01:06.024Z,4.23
2019-06-23T01:03:33.041Z,4.13
2019-06-23T01:06:00.133Z,4.70
2019-06-23T01:08:27.007Z,4.50
2019-06-23T01:10:54.185Z,4.40
2019-06-23T01:13:21.356Z,4.70
2019-06-23T01:15:48.359Z,4.20
2019-06-23T01:18:15.440Z,4.77
2019-06-23T01:20:42.340Z,4.30
2019-06-23T01:23:09.379Z,4.33
2019-06-23T01:25:36.561Z,4.70
2019-06-23T01:28:03.479Z,4.20
2019-06-23T01:30:30.447Z,4.20
2019-06-23T01:32:57.524Z,4.13
2019-06-23T01:35:24.705Z,4.43
2019-06-23T01:37:51.606Z,4.37
2019-06-23T01:40:18.559Z,4.33
2019-06-23T01:42:45.462Z,4.37
2019-06-23T01:45:13.959Z,3.83
2019-06-23T01:47:40.813Z,4.13
2019-06-23T01:50:08.088Z,3.87
2019-06-23T01:52:35.289Z,4.10
2019-06-23T01:55:02.489Z,3.70
2019-06-23T01:57:29.499Z,3.93
2019-06-23T01:59:56.606Z,3.60
2019-06-23T02:02:24.004Z,3.57
2019-06-23T02:04:50.948Z,3.67
2019-06-23T02:07:17.980Z,3.90
2019-06-23T02:09:45.103Z,4.07
2019-06-23T02:12:12.114Z,3.90
2019-06-23T02:14:39.257Z,3.97
2019-06-23T02:17:06.190Z,3.80
2019-06-23T02:19:33.459Z,3.10
2019-06-23T02:22:09.461Z,3.07
2019-06-23T02:24:36.784Z,3.00
2019-06-23T02:27:04.031Z,3.40
2019-06-23T02:29:31.272Z,3.00
2019-06-23T02:31:58.145Z,3.10
2019-06-23T02:34:25.328Z,3.27
2019-06-23T02:36:52.329Z,3.33
2019-06-23T02:39:19.754Z,3.33
2019-06-23T02:41:46.874Z,3.23
2019-06-23T02:44:13.919Z,3.47
2019-06-23T02:46:43.833Z,3.30
2019-06-23T02:49:12.694Z,3.57
2019-06-23T02:51:45.471Z,3.40
2019-06-23T02:54:18.866Z,3.20
2019-06-23T02:56:50.553Z,3.17
2019-06-23T02:59:17.484Z,3.20
2019-06-23T03:01:45.185Z,3.47
2019-06-23T03:04:12.278Z,3.67
2019-06-23T03:06:39.200Z,3.37
2019-06-23T03:09:06.614Z,3.10
2019-06-23T03:11:33.614Z,3.27
2019-06-23T03:14:00.531Z,3.60
2019-06-23T03:16:27.880Z,3.63
2019-06-23T03:18:55.044Z,3.03
2019-06-23T03:21:22.026Z,3.80
2019-06-23T03:23:48.865Z,3.57
2019-06-23T03:26:19.323Z,3.57
2019-06-23T03:28:46.971Z,3.67
2019-06-23T03:31:13.952Z,4.00
2019-06-23T03:33:40.847Z,3.67
2019-06-23T03:36:07.943Z,3.33
2019-06-23T03:38:35.373Z,3.63
2019-06-23T03:41:03.347Z,3.50
2019-06-23T03:43:30.905Z,3.67
2019-06-23T03:45:57.983Z,4.23
2019-06-23T03:48:25.271Z,4.30
2019-06-23T03:50:52.177Z,4.13
2019-06-23T03:53:19.015Z,4.17
2019-06-23T03:55:46.270Z,4.03
2019-06-23T03:58:13.468Z,3.70
2019-06-23T04:00:40.317Z,3.80
2019-06-23T04:03:07.395Z,4.23
2019-06-23T04:05:50.078Z,3.90
2019-06-23T04:08:03.577Z,4.00
2019-06-23T04:10:30.717Z,3.90
2019-06-23T04:12:57.964Z,4.27
2019-06-23T04:15:25.367Z,4.00
2019-06-23T04:17:52.201Z,3.90
2019-06-23T04:20:21.361Z,3.60
2019-06-23T04:22:48.615Z,3.87
2019-06-23T04:25:15.751Z,3.53
2019-06-23T04:27:42.920Z,3.80
2019-06-23T04:30:10.876Z,3.40
2019-06-23T04:32:38.056Z,3.60
2019-06-23T04:35:04.965Z,3.83
2019-06-23T04:37:31.816Z,3.33
2019-06-23T04:39:58.840Z,3.17
2019-06-23T04:42:25.762Z,3.50
2019-06-23T04:44:52.640Z,3.20
2019-06-23T04:47:19.470Z,2.73
2019-06-23T04:49:46.310Z,3.30
2019-06-23T04:52:13.374Z,3.07
2019-06-23T04:54:40.150Z,2.90
2019-06-23T04:57:07.438Z,3.37
2019-06-23T04:59:34.408Z,3.00
2019-06-23T05:02:01.442Z,3.25
2019-06-23T05:04:28.800Z,2.90
2019-06-23T05:06:55.846Z,3.00
2019-06-23T05:09:22.888Z,2.80
2019-06-23T05:11:49.772Z,2.60
2019-06-23T05:14:16.736Z,2.93
2019-06-23T05:16:43.697Z,2.80
2019-06-23T05:19:10.583Z,2.77
2019-06-23T05:21:37.683Z,2.47
2019-06-23T05:24:04.924Z,2.70
2019-06-23T05:26:31.827Z,2.60
2019-06-23T05:28:59.062Z,2.50
2019-06-23T05:31:25.928Z,2.50
2019-06-23T05:33:54.036Z,2.10
2019-06-23T05:36:21.270Z,2.10
2019-06-23T05:38:48.439Z,2.22
2019-06-23T05:41:15.493Z,2.00
2019-06-23T05:43:42.524Z,1.90
2019-06-23T05:46:09.374Z,2.00
2019-06-23T05:48:36.623Z,2.08
2019-06-23T05:51:04.050Z,2.08
2019-06-23T05:53:31.168Z,2.12
2019-06-23T05:55:58.065Z,1.87
2019-06-23T05:58:25.196Z,2.27
2019-06-23T06:00:52.580Z,2.05
2019-06-23T06:03:19.483Z,1.87
2019-06-23T06:05:46.478Z,1.80
2019-06-23T06:08:13.778Z,1.75
2019-06-23T06:10:41.246Z,1.72
2019-06-23T06:13:08.336Z,1.70
2019-06-23T06:15:35.322Z,1.70
2019-06-23T06:18:02.408Z,1.40
2019-06-23T06:20:29.990Z,1.70
2019-06-23T06:22:56.981Z,1.40
2019-06-23T06:25:24.422Z,1.30
2019-06-23T06:27:51.286Z,1.25
2019-06-23T06:30:18.329Z,1.30
2019-06-23T06:32:45.127Z,1.40
2019-06-23T06:35:12.278Z,1.30
2019-06-23T06:37:39.238Z,1.20
2019-06-23T06:40:06.519Z,1.40
2019-06-23T06:42:33.576Z,1.70
2019-06-23T06:45:00.514Z,1.30
2019-06-23T06:47:28.161Z,1.40
2019-06-23T06:49:55.555Z,1.47
2019-06-23T06:52:22.878Z,1.40
2019-06-23T06:54:50.022Z,1.60
2019-06-23T06:57:16.866Z,1.45
2019-06-23T06:59:43.929Z,1.42
2019-06-23T07:02:11.493Z,1.40
2019-06-23T07:04:38.802Z,1.72
2019-06-23T07:07:05.909Z,1.70
2019-06-23T07:09:32.869Z,1.80
2019-06-23T07:12:00.018Z,1.90
2019-06-23T07:14:26.898Z,1.77
2019-06-23T07:16:54.184Z,1.60
2019-06-23T07:19:21.706Z,1.80
2019-06-23T07:21:48.791Z,1.90
2019-06-23T07:24:15.664Z,2.00
2019-06-23T07:26:42.718Z,2.00
2019-06-23T07:29:09.948Z,1.75
2019-06-23T07:31:45.475Z,2.58
2019-06-23T07:34:12.317Z,2.40
2019-06-23T07:36:39.830Z,3.00
2019-06-23T07:39:06.686Z,5.28
2019-06-23T07:41:33.672Z,5.90
2019-06-23T07:44:00.496Z,5.65
2019-06-23T07:46:27.702Z,5.55
2019-06-23T07:48:54.875Z,5.20
2019-06-23T07:51:22.274Z,5.28
2019-06-23T07:53:49.407Z,6.75
2019-06-23T07:56:16.248Z,7.10
2019-06-23T07:58:43.429Z,7.85
2019-06-23T08:01:10.355Z,7.30
2019-06-23T08:03:37.177Z,8.50
2019-06-23T08:06:04.685Z,9.00
2019-06-23T08:08:32.153Z,9.68
2019-06-23T08:10:59.265Z,9.35
2019-06-23T08:13:26.203Z,10.95
2019-06-23T08:16:05.748Z,10.85
2019-06-23T08:18:22.298Z,11.60
2019-06-23T08:20:49.379Z,10.30
2019-06-23T08:23:16.228Z,10.95
2019-06-23T08:25:43.454Z,11.12
2019-06-23T08:28:11.191Z,10.40
2019-06-23T08:30:38.212Z,10.72
2019-06-23T08:33:05.457Z,12.37
2019-06-23T08:35:32.473Z,10.82
2019-06-23T08:38:14.511Z,10.65
2019-06-23T08:40:28.641Z,10.63
2019-06-23T08:42:55.751Z,11.00
2019-06-23T08:45:22.980Z,10.20
2019-06-23T08:47:50.335Z,9.35
2019-06-23T08:50:17.228Z,9.13
2019-06-23T08:52:44.068Z,9.65
2019-06-23T08:55:11.069Z,8.33
2019-06-23T08:57:38.111Z,10.10
2019-06-23T09:00:05.289Z,9.95
2019-06-23T09:02:32.153Z,9.23
2019-06-23T09:04:59.307Z,10.58
2019-06-23T09:07:26.573Z,9.68
2019-06-23T09:09:53.863Z,10.90
2019-06-23T09:12:20.893Z,11.25
2019-06-23T09:14:47.911Z,8.93
2019-06-23T09:17:15.354Z,10.05
2019-06-23T09:19:42.905Z,11.25
2019-06-23T09:22:09.782Z,9.28
2019-06-23T09:24:36.723Z,9.63
2019-06-23T09:27:04.017Z,9.23
2019-06-23T09:29:31.200Z,9.45
2019-06-23T09:31:58.270Z,10.03
2019-06-23T09:34:25.217Z,7.97
2019-06-23T09:36:52.347Z,9.00
2019-06-23T09:39:19.615Z,8.30
2019-06-23T09:41:46.615Z,9.05
2019-06-23T09:44:13.753Z,9.53
2019-06-23T09:46:40.851Z,9.88
2019-06-23T09:49:07.691Z,7.72
2019-06-23T09:51:34.663Z,8.48
2019-06-23T09:54:01.731Z,8.80
2019-06-23T09:56:28.639Z,8.13
2019-06-23T09:58:55.841Z,7.87
2019-06-23T10:01:22.789Z,8.83
2019-06-23T10:03:49.779Z,7.87
2019-06-23T10:06:16.769Z,8.08
2019-06-23T10:08:44.122Z,7.37
2019-06-23T10:11:11.142Z,9.38
2019-06-23T10:13:38.107Z,8.30
2019-06-23T10:16:05.147Z,7.90
2019-06-23T10:18:32.562Z,8.08
2019-06-23T10:20:59.463Z,6.85
2019-06-23T10:23:26.622Z,7.30
2019-06-23T10:25:53.460Z,7.30
2019-06-23T10:28:20.660Z,6.58
2019-06-23T10:30:47.821Z,7.37
2019-06-23T10:33:14.701Z,7.67
2019-06-23T10:35:42.400Z,7.97
2019-06-23T10:38:09.821Z,6.30
2019-06-23T10:40:37.079Z,6.85
2019-06-23T10:43:04.259Z,7.00
2019-06-23T10:45:31.436Z,6.42
2019-06-23T10:47:58.351Z,6.00
2019-06-23T10:50:25.597Z,5.72
2019-06-23T10:52:52.633Z,6.30
2019-06-23T10:55:19.868Z,6.20
2019-06-23T10:57:47.112Z,5.40
2019-06-23T11:00:14.681Z,5.28
2019-06-23T11:02:41.569Z,4.75
2019-06-23T11:05:08.864Z,5.28
2019-06-23T11:07:36.013Z,5.80
2019-06-23T11:10:03.222Z,6.17
2019-06-23T11:12:30.352Z,5.90
2019-06-23T11:14:57.315Z,6.67
2019-06-23T11:17:24.096Z,5.85
2019-06-23T11:19:50.976Z,5.37
2019-06-23T11:22:18.011Z,5.03
2019-06-23T11:24:44.989Z,5.28
2019-06-23T11:27:12.080Z,5.45
2019-06-23T11:29:39.513Z,5.67
2019-06-23T11:32:06.643Z,5.40
2019-06-23T11:34:33.657Z,6.42
2019-06-23T11:37:00.739Z,5.33
2019-06-23T11:39:27.746Z,5.10
2019-06-23T11:41:54.888Z,4.58
2019-06-23T11:44:21.982Z,5.80
2019-06-23T11:46:48.937Z,5.40
2019-06-23T11:49:16.084Z,5.33
2019-06-23T11:51:43.221Z,5.65
2019-06-23T11:54:10.265Z,5.05
2019-06-23T11:56:37.088Z,5.00
2019-06-23T11:59:03.966Z,4.65
2019-06-23T12:01:31.032Z,4.62
2019-06-23T12:03:57.959Z,4.80
2019-06-23T12:06:24.811Z,4.30
2019-06-23T12:08:52.193Z,4.15
2019-06-23T12:11:19.174Z,4.70
2019-06-23T12:13:46.104Z,4.28
2019-06-23T12:16:13.036Z,4.08
2019-06-23T12:18:40.097Z,4.58
2019-06-23T12:21:06.891Z,4.47
2019-06-23T12:23:34.152Z,4.75
2019-06-23T12:26:01.074Z,4.00
2019-06-23T12:28:28.068Z,4.03
2019-06-23T12:30:54.948Z,4.35
2019-06-23T12:33:21.759Z,4.03
2019-06-23T12:35:48.546Z,3.98
2019-06-23T12:38:15.851Z,4.60
2019-06-23T12:40:42.741Z,4.92
2019-06-23T12:43:09.786Z,4.05
2019-06-23T12:45:36.620Z,5.08
2019-06-23T12:48:03.876Z,4.40
2019-06-23T12:50:30.935Z,3.62
2019-06-23T12:52:59.376Z,3.58
2019-06-23T12:55:26.268Z,4.75
2019-06-23T12:57:53.253Z,4.10
2019-06-23T13:00:20.566Z,3.90
2019-06-23T13:02:47.490Z,4.58
2019-06-23T13:05:14.453Z,4.25
2019-06-23T13:07:41.475Z,4.37
2019-06-23T13:10:08.798Z,3.72
2019-06-23T13:12:36.015Z,4.00
2019-06-23T13:15:04.206Z,4.03
2019-06-23T13:17:31.193Z,3.85
2019-06-23T13:19:58.008Z,3.50
2019-06-23T13:22:25.047Z,3.80
2019-06-23T13:24:51.979Z,4.12
2019-06-23T13:27:19.284Z,3.60
2019-06-23T13:29:46.096Z,3.58
2019-06-23T13:32:13.243Z,3.52
2019-06-23T13:34:40.152Z,3.52
2019-06-23T13:37:07.422Z,3.62
2019-06-23T13:39:34.783Z,3.58
2019-06-23T13:42:01.599Z,3.30
2019-06-23T13:44:28.697Z,3.55
2019-06-23T13:46:55.744Z,3.20
2019-06-23T13:49:22.707Z,3.45
2019-06-23T13:51:50.033Z,3.40
2019-06-23T13:54:16.931Z,3.20
2019-06-23T13:56:43.807Z,3.00
2019-06-23T13:59:10.930Z,2.90
2019-06-23T14:01:38.223Z,3.05
2019-06-23T14:04:05.712Z,3.27
2019-06-23T14:06:32.629Z,2.83
2019-06-23T14:08:59.722Z,3.00
2019-06-23T14:11:26.745Z,3.10
2019-06-23T14:13:53.829Z,3.10
2019-06-23T14:16:20.875Z,3.45
2019-06-23T14:18:47.651Z,2.85
2019-06-23T14:21:14.467Z,3.05
2019-06-23T14:23:41.331Z,3.00
2019-06-23T14:26:08.384Z,2.98
2019-06-23T14:28:35.463Z,3.00
2019-06-23T14:31:02.339Z,2.92
2019-06-23T14:33:29.305Z,3.12
2019-06-23T14:35:56.419Z,2.90
2019-06-23T14:38:23.868Z,2.92
2019-06-23T14:40:50.847Z,2.80
2019-06-23T14:43:18.239Z,3.30
2019-06-23T14:45:45.250Z,2.92
2019-06-23T14:48:12.265Z,3.10
2019-06-23T14:50:39.751Z,3.10
2019-06-23T14:53:06.569Z,3.20
2019-06-23T14:55:33.524Z,3.00
2019-06-23T14:58:00.495Z,3.00
2019-06-23T15:00:27.722Z,3.00
2019-06-23T15:02:54.666Z,3.25
2019-06-23T15:05:21.641Z,2.98
2019-06-23T15:07:48.478Z,2.90
2019-06-23T15:10:15.467Z,2.58
2019-06-23T15:12:42.573Z,2.58
2019-06-23T15:15:09.737Z,2.60
2019-06-23T15:17:37.295Z,2.60
2019-06-23T15:20:21.425Z,2.62
2019-06-23T15:22:34.235Z,2.50
2019-06-23T15:25:01.257Z,2.92
2019-06-23T15:27:28.325Z,2.85
2019-06-23T15:29:55.352Z,2.72
2019-06-23T15:32:22.248Z,2.67
2019-06-23T15:34:49.581Z,2.70
2019-06-23T15:37:16.678Z,2.75
2019-06-23T15:39:43.654Z,2.95
2019-06-23T15:42:10.775Z,2.80
2019-06-23T15:44:37.636Z,2.60
2019-06-23T15:47:04.424Z,3.12
2019-06-23T15:49:31.594Z,2.60
2019-06-23T15:51:58.533Z,2.42
2019-06-23T15:54:25.515Z,3.25
2019-06-23T15:56:52.710Z,3.00
2019-06-23T15:59:19.908Z,2.60
2019-06-23T16:01:46.970Z,2.87
2019-06-23T16:04:13.817Z,2.60
2019-06-23T16:06:41.003Z,2.70
2019-06-23T16:09:07.816Z,2.60
2019-06-23T16:11:35.072Z,3.00
2019-06-23T16:14:01.928Z,2.70
2019-06-23T16:16:28.734Z,3.00
2019-06-23T16:18:55.905Z,2.80
2019-06-23T16:21:22.874Z,2.95
2019-06-23T16:23:49.951Z,2.95
2019-06-23T16:26:16.994Z,2.90
2019-06-23T16:28:44.309Z,2.87
2019-06-23T16:31:11.899Z,3.17
2019-06-23T16:33:38.928Z,3.27
2019-06-23T16:36:06.029Z,3.17
2019-06-23T16:38:33.022Z,3.15
2019-06-23T16:41:00.058Z,3.17
2019-06-23T16:43:27.939Z,3.10
2019-06-23T16:45:55.004Z,4.65
2019-06-23T16:48:22.096Z,3.65
2019-06-23T16:50:49.273Z,3.12
2019-06-23T16:53:16.355Z,3.40
2019-06-23T16:55:43.470Z,3.27
2019-06-23T16:58:10.525Z,3.05
2019-06-23T17:00:37.532Z,3.35
2019-06-23T17:03:05.003Z,3.45
2019-06-23T17:05:31.870Z,2.85
2019-06-23T17:07:58.752Z,3.52
2019-06-23T17:10:25.662Z,3.77
2019-06-23T17:12:52.515Z,3.20
2019-06-23T17:15:19.877Z,3.35
2019-06-23T17:17:46.973Z,3.33
2019-06-23T17:20:14.272Z,3.40
2019-06-23T17:22:41.388Z,3.33
2019-06-23T17:25:08.762Z,3.37
2019-06-23T17:27:36.151Z,3.30
2019-06-23T17:30:04.886Z,3.30
2019-06-23T17:32:32.143Z,3.27
2019-06-23T17:34:58.988Z,3.35
2019-06-23T17:37:25.767Z,3.42
2019-06-23T17:39:52.856Z,3.52
2019-06-23T17:42:19.797Z,3.50
2019-06-23T17:44:46.878Z,3.15
2019-06-23T17:47:13.767Z,3.37
2019-06-23T17:49:40.682Z,3.25
2019-06-23T17:52:07.787Z,3.42
2019-06-23T17:54:34.835Z,3.37
2019-06-23T17:57:01.938Z,3.80
2019-06-23T17:59:28.834Z,3.45
2019-06-23T18:01:55.682Z,3.27
2019-06-23T18:04:22.552Z,3.45
2019-06-23T18:06:49.448Z,3.10
2019-06-23T18:09:16.399Z,3.50
2019-06-23T18:11:43.319Z,3.52
2019-06-23T18:14:10.338Z,3.30
2019-06-23T18:16:37.387Z,3.30
2019-06-23T18:19:04.288Z,3.10
2019-06-23T18:21:31.585Z,3.40
2019-06-23T18:23:58.535Z,3.20
2019-06-23T18:26:25.470Z,3.20
2019-06-23T18:28:52.385Z,3.30
2019-06-23T18:31:19.407Z,2.90
2019-06-23T18:33:46.269Z,3.08
2019-06-23T18:36:13.230Z,3.25
2019-06-23T18:38:42.422Z,3.50
2019-06-23T18:41:09.079Z,3.08
2019-06-23T18:43:37.634Z,3.40
2019-06-23T18:46:05.639Z,3.00
2019-06-23T18:48:32.801Z,3.12
2019-06-23T18:50:59.829Z,3.20
2019-06-23T18:53:26.751Z,2.98
2019-06-23T18:55:54.329Z,3.20
2019-06-23T18:58:21.233Z,3.30
2019-06-23T19:00:48.190Z,3.10
2019-06-23T19:03:15.271Z,2.95
2019-06-23T19:05:42.177Z,3.20
2019-06-23T19:08:09.061Z,3.05
2019-06-23T19:10:36.171Z,3.22
2019-06-23T19:13:03.308Z,3.22
2019-06-23T19:15:30.185Z,3.27
2019-06-23T19:17:57.109Z,3.30
2019-06-23T19:20:24.355Z,3.08
2019-06-23T19:22:51.405Z,3.45
2019-06-23T19:25:18.790Z,3.30
2019-06-23T19:27:45.935Z,3.20
2019-06-23T19:30:12.737Z,3.22
2019-06-23T19:32:39.852Z,3.25
2019-06-23T19:35:07.168Z,3.55
2019-06-23T19:37:37.268Z,3.45
2019-06-23T19:40:03.274Z,3.52
2019-06-23T19:42:30.245Z,3.33
2019-06-23T19:44:57.285Z,3.72
2019-06-23T19:47:24.347Z,3.70
2019-06-23T19:49:51.385Z,3.55
2019-06-23T19:52:18.193Z,3.75
2019-06-23T19:54:45.099Z,3.42
2019-06-23T19:57:12.151Z,3.58
2019-06-23T19:59:39.032Z,3.60
2019-06-23T20:02:06.276Z,3.60
2019-06-23T20:04:33.219Z,3.42
2019-06-23T20:07:00.229Z,3.37
2019-06-23T20:09:27.570Z,3.50
2019-06-23T20:11:54.565Z,3.45
2019-06-23T20:14:27.028Z,3.60
2019-06-23T20:16:50.578Z,3.52
2019-06-23T20:19:17.758Z,3.33
2019-06-23T20:21:44.967Z,3.50
2019-06-23T20:24:11.903Z,3.95
2019-06-23T20:26:39.222Z,4.10
2019-06-23T20:29:06.185Z,4.12
2019-06-23T20:31:33.201Z,3.50
2019-06-23T20:34:00.005Z,3.80
2019-06-23T20:36:27.015Z,4.10
2019-06-23T20:38:54.424Z,4.03
2019-06-23T20:41:21.640Z,4.05
2019-06-23T20:43:48.569Z,3.80
2019-06-23T20:46:15.708Z,4.03
2019-06-23T20:48:42.953Z,3.90
2019-06-23T20:51:09.997Z,4.08
2019-06-23T20:53:37.313Z,3.47
2019-06-23T20:56:04.386Z,4.10
2019-06-23T20:58:31.993Z,4.28
2019-06-23T21:00:58.941Z,3.67
2019-06-23T21:03:26.296Z,4.00
2019-06-23T21:05:53.457Z,3.90
2019-06-23T21:08:20.426Z,4.33
2019-06-23T21:10:47.475Z,3.83
2019-06-23T21:13:14.485Z,4.50
2019-06-23T21:15:41.615Z,4.00
2019-06-23T21:18:08.577Z,3.90
2019-06-23T21:20:35.564Z,3.95
2019-06-23T21:23:02.431Z,4.47
2019-06-23T21:25:29.251Z,4.15
2019-06-23T21:27:56.312Z,4.10
2019-06-23T21:30:23.454Z,4.30
2019-06-23T21:32:50.462Z,4.08
2019-06-23T21:35:17.386Z,4.22
2019-06-23T21:37:44.580Z,4.10
2019-06-23T21:40:11.897Z,4.20
2019-06-23T21:42:38.842Z,3.95
2019-06-23T21:45:15.574Z,4.20
2019-06-23T21:47:35.189Z,4.20
2019-06-23T21:50:02.391Z,4.12
2019-06-23T21:52:29.321Z,4.35
2019-06-23T21:54:56.380Z,4.60
2019-06-23T21:57:23.599Z,4.37
2019-06-23T21:59:50.910Z,4.03
2019-06-23T22:02:18.188Z,4.65
2019-06-23T22:04:45.422Z,4.10
2019-06-23T22:07:12.315Z,4.15
2019-06-23T22:09:39.273Z,4.15
2019-06-23T22:12:06.170Z,4.40
2019-06-23T22:14:33.060Z,4.58
2019-06-23T22:16:59.976Z,4.45
2019-06-23T22:19:27.006Z,4.53
2019-06-23T22:21:54.042Z,4.17
2019-06-23T22:24:21.583Z,4.40
2019-06-23T22:26:48.551Z,4.17
2019-06-23T22:29:15.807Z,4.60
2019-06-23T22:31:43.086Z,4.65
2019-06-23T22:34:10.322Z,4.20
2019-06-23T22:36:37.365Z,4.60
2019-06-23T22:39:04.676Z,4.50
2019-06-23T22:41:31.660Z,4.53
2019-06-23T22:43:58.504Z,4.33
2019-06-23T22:46:26.140Z,4.80
2019-06-23T22:48:52.980Z,4.83
2019-06-23T22:51:20.004Z,4.47
2019-06-23T22:53:47.450Z,4.47
2019-06-23T22:56:14.458Z,4.70
2019-06-23T22:58:41.343Z,4.47
2019-06-23T23:01:08.344Z,5.00
2019-06-23T23:03:35.275Z,5.37
2019-06-23T23:06:02.088Z,4.70
2019-06-23T23:08:28.894Z,5.50
2019-06-23T23:10:56.019Z,5.40
2019-06-23T23:13:22.863Z,5.12
2019-06-23T23:16:02.707Z,5.05
2019-06-23T23:18:18.903Z,5.35
2019-06-23T23:20:46.045Z,5.60
2019-06-23T23:23:13.099Z,4.97
2019-06-23T23:25:40.052Z,4.97
2019-06-23T23:28:07.195Z,4.85
2019-06-23T23:30:34.658Z,5.17
2019-06-23T23:33:01.722Z,5.70
2019-06-23T23:35:28.611Z,5.78
2019-06-23T23:37:55.707Z,5.65
2019-06-23T23:40:22.596Z,5.53
2019-06-23T23:42:49.783Z,5.97
2019-06-23T23:45:16.857Z,5.95
2019-06-23T23:47:43.615Z,5.80
2019-06-23T23:50:10.916Z,5.62
2019-06-23T23:52:44.519Z,6.17
2019-06-23T23:55:06.963Z,6.10
2019-06-23T23:57:33.825Z,5.78
